createdAt,value
2024-01-27T00:01:59.199Z,1.77
2024-01-27T00:07:01.048Z,1.90
2024-01-27T00:12:02.914Z,1.60
2024-01-27T00:17:04.584Z,1.48
2024-01-27T00:22:06.620Z,1.48
2024-01-27T00:27:08.344Z,1.73
2024-01-27T00:32:10.027Z,1.42
2024-01-27T00:37:11.640Z,1.55
2024-01-27T00:42:13.557Z,1.30
2024-01-27T00:47:15.255Z,1.73
2024-01-27T00:52:16.843Z,1.50
2024-01-27T00:57:18.504Z,1.42
2024-01-27T01:02:20.224Z,1.60
2024-01-27T01:07:21.851Z,1.20
2024-01-27T01:12:23.662Z,1.67
2024-01-27T01:17:25.390Z,1.42
2024-01-27T01:22:27.000Z,1.65
2024-01-27T01:27:28.751Z,1.60
2024-01-27T01:32:30.383Z,1.65
2024-01-27T01:37:32.357Z,1.45
2024-01-27T01:42:34.069Z,1.75
2024-01-27T01:47:35.824Z,1.20
2024-01-27T01:52:38.458Z,1.60
2024-01-27T01:57:40.150Z,1.75
2024-01-27T02:02:44.678Z,1.83
2024-01-27T02:07:46.267Z,1.27
2024-01-27T02:12:47.946Z,1.98
2024-01-27T02:17:49.676Z,1.65
2024-01-27T02:22:51.329Z,1.77
2024-01-27T02:27:53.319Z,1.83
2024-01-27T02:32:58.577Z,1.80
2024-01-27T02:38:00.241Z,1.70
2024-01-27T02:43:02.160Z,1.80
2024-01-27T02:48:04.430Z,1.70
2024-01-27T02:53:06.149Z,1.70
2024-01-27T02:58:07.814Z,2.20
2024-01-27T03:03:09.556Z,1.90
2024-01-27T03:08:11.415Z,1.42
2024-01-27T03:13:13.062Z,1.95
2024-01-27T03:18:14.824Z,1.40
2024-01-27T03:23:16.473Z,1.83
2024-01-27T03:28:18.092Z,1.65
2024-01-27T03:33:19.855Z,2.00
2024-01-27T03:38:21.533Z,1.95
2024-01-27T03:43:23.146Z,1.93
2024-01-27T03:48:25.327Z,1.80
2024-01-27T03:53:26.981Z,1.40
2024-01-27T03:58:28.590Z,2.30
2024-01-27T04:03:30.257Z,1.95
2024-01-27T04:08:31.975Z,2.03
2024-01-27T04:13:33.589Z,2.20
2024-01-27T04:18:35.344Z,2.08
2024-01-27T04:23:37.131Z,2.05
2024-01-27T04:28:38.795Z,1.73
2024-01-27T04:33:40.712Z,2.00
2024-01-27T04:38:44.670Z,1.90
2024-01-27T04:43:46.275Z,2.22
2024-01-27T04:48:48.388Z,2.10
2024-01-27T04:53:51.673Z,2.35
2024-01-27T04:58:53.438Z,2.17
2024-01-27T05:03:55.205Z,2.20
2024-01-27T05:08:57.079Z,1.70
2024-01-27T05:13:59.969Z,2.07
2024-01-27T05:19:01.713Z,2.07
2024-01-27T05:24:03.556Z,1.92
2024-01-27T05:29:05.286Z,2.43
2024-01-27T05:34:07.067Z,2.05
2024-01-27T05:39:09.492Z,2.45
2024-01-27T05:44:11.117Z,2.08
2024-01-27T05:49:12.930Z,2.20
2024-01-27T05:54:17.743Z,1.90
2024-01-27T05:59:19.663Z,2.17
2024-01-27T06:04:21.302Z,2.47
2024-01-27T06:09:23.110Z,1.77
2024-01-27T06:14:24.921Z,2.10
2024-01-27T06:19:26.724Z,2.60
2024-01-27T06:24:28.481Z,2.00
2024-01-27T06:29:30.270Z,2.35
2024-01-27T06:34:33.414Z,2.30
2024-01-27T06:39:35.230Z,1.67
2024-01-27T06:44:36.869Z,2.28
2024-01-27T06:49:38.759Z,2.10
2024-01-27T06:54:44.999Z,1.98
2024-01-27T06:59:53.451Z,2.35
2024-01-27T07:04:55.843Z,2.28
2024-01-27T07:09:58.251Z,2.33
2024-01-27T07:15:01.021Z,2.30
2024-01-27T07:20:03.003Z,2.88
2024-01-27T07:25:05.134Z,2.13
2024-01-27T07:30:09.738Z,2.50
2024-01-27T07:35:11.570Z,2.10
2024-01-27T07:40:13.536Z,2.05
2024-01-27T07:45:16.079Z,2.50
2024-01-27T07:50:17.896Z,2.00
2024-01-27T07:55:19.472Z,2.55
2024-01-27T08:00:21.344Z,1.73
2024-01-27T08:05:23.025Z,2.25
2024-01-27T08:10:24.818Z,2.30
2024-01-27T08:15:26.508Z,2.70
2024-01-27T08:20:28.137Z,2.38
2024-01-27T08:25:29.812Z,3.00
2024-01-27T08:30:31.533Z,2.75
2024-01-27T08:35:33.302Z,2.65
2024-01-27T08:40:35.292Z,2.58
2024-01-27T08:45:38.948Z,2.20
2024-01-27T08:50:40.680Z,2.40
2024-01-27T08:55:42.550Z,2.45
2024-01-27T09:00:44.278Z,2.67
2024-01-27T09:05:46.376Z,2.20
2024-01-27T09:10:48.047Z,2.72
2024-01-27T09:15:49.840Z,2.25
2024-01-27T09:20:51.586Z,2.85
2024-01-27T09:25:53.260Z,3.30
2024-01-27T09:30:55.119Z,2.00
2024-01-27T09:35:56.872Z,2.58
2024-01-27T09:40:58.540Z,2.40
2024-01-27T09:46:00.593Z,2.70
2024-01-27T09:51:03.682Z,2.78
2024-01-27T09:56:05.672Z,2.92
2024-01-27T10:01:08.210Z,2.72
2024-01-27T10:06:10.964Z,3.08
2024-01-27T10:11:15.174Z,2.25
2024-01-27T10:16:16.838Z,2.55
2024-01-27T10:21:19.677Z,2.50
2024-01-27T10:26:21.355Z,2.38
2024-01-27T10:31:29.981Z,3.50
2024-01-27T10:36:42.264Z,3.00
2024-01-27T10:41:47.422Z,2.83
2024-01-27T10:46:50.315Z,2.53
2024-01-27T10:51:59.729Z,2.75
2024-01-27T10:57:03.112Z,3.05
2024-01-27T11:02:05.716Z,3.22
2024-01-27T11:07:08.326Z,3.05
2024-01-27T11:12:10.381Z,3.00
2024-01-27T11:17:12.174Z,3.22
2024-01-27T11:22:30.065Z,3.03
2024-01-27T11:27:31.789Z,3.10
2024-01-27T11:32:34.017Z,2.97
2024-01-27T11:37:36.413Z,2.88
2024-01-27T11:42:38.127Z,3.22
2024-01-27T11:47:39.852Z,3.70
2024-01-27T11:52:41.556Z,2.60
2024-01-27T11:57:43.479Z,3.65
2024-01-27T12:02:45.192Z,3.38
2024-01-27T12:07:46.939Z,3.35
2024-01-27T12:12:48.587Z,3.28
2024-01-27T12:17:52.705Z,2.33
2024-01-27T12:23:07.385Z,3.00
2024-01-27T12:28:09.907Z,3.17
2024-01-27T12:33:13.427Z,2.85
2024-01-27T12:38:15.156Z,3.40
2024-01-27T12:43:16.851Z,2.83
2024-01-27T12:48:18.523Z,2.67
2024-01-27T12:53:20.286Z,2.60
2024-01-27T12:58:21.940Z,2.50
2024-01-27T13:03:23.681Z,2.95
2024-01-27T13:08:26.088Z,2.92
2024-01-27T13:13:27.888Z,2.80
2024-01-27T13:18:29.711Z,2.33
2024-01-27T13:23:31.533Z,2.63
2024-01-27T13:28:33.360Z,2.63
2024-01-27T13:33:36.588Z,3.13
2024-01-27T13:38:38.850Z,2.72
2024-01-27T13:43:40.769Z,3.20
2024-01-27T13:48:43.259Z,2.47
2024-01-27T13:53:47.652Z,3.70
2024-01-27T13:58:50.040Z,2.92
2024-01-27T14:03:52.133Z,2.67
2024-01-27T14:08:53.925Z,2.75
2024-01-27T14:13:56.837Z,2.60
2024-01-27T14:18:58.665Z,3.10
2024-01-27T14:24:07.497Z,2.55
2024-01-27T14:29:09.157Z,2.67
2024-01-27T14:34:11.168Z,2.17
2024-01-27T14:39:13.204Z,2.60
2024-01-27T14:44:15.037Z,2.58
2024-01-27T14:49:17.292Z,2.90
2024-01-27T14:54:21.199Z,2.58
2024-01-27T14:59:23.129Z,2.72
2024-01-27T15:04:27.861Z,2.33
2024-01-27T15:09:29.596Z,2.85
2024-01-27T15:14:32.956Z,2.65
2024-01-27T15:19:40.578Z,2.83
2024-01-27T15:24:43.185Z,2.78
2024-01-27T15:29:44.940Z,3.42
2024-01-27T15:34:46.693Z,2.53
2024-01-27T15:39:48.548Z,2.95
2024-01-27T15:44:50.203Z,3.08
2024-01-27T15:49:57.978Z,3.10
2024-01-27T15:55:00.198Z,2.92
2024-01-27T16:00:01.977Z,2.30
2024-01-27T16:05:06.682Z,2.70
2024-01-27T16:10:08.635Z,3.15
2024-01-27T16:15:10.858Z,3.05
2024-01-27T16:20:12.764Z,4.20
2024-01-27T16:25:15.120Z,3.35
2024-01-27T16:30:17.384Z,3.47
2024-01-27T16:35:20.217Z,3.50
2024-01-27T16:40:22.513Z,3.40
2024-01-27T16:45:24.223Z,2.72
2024-01-27T16:50:25.895Z,3.35
2024-01-27T16:55:27.621Z,2.50
2024-01-27T17:00:29.336Z,2.92
2024-01-27T17:05:30.965Z,3.70
2024-01-27T17:10:32.766Z,3.55
2024-01-27T17:15:35.769Z,3.20
2024-01-27T17:20:37.521Z,3.65
2024-01-27T17:25:39.331Z,3.60
2024-01-27T17:30:41.474Z,3.90
2024-01-27T17:35:43.232Z,3.85
2024-01-27T17:40:44.941Z,3.90
2024-01-27T17:45:46.674Z,4.10
2024-01-27T17:50:48.351Z,4.10
2024-01-27T17:55:50.807Z,3.75
2024-01-27T18:00:52.799Z,3.63
2024-01-27T18:05:54.778Z,4.05
2024-01-27T18:10:56.409Z,4.22
2024-01-27T18:15:58.963Z,3.35
2024-01-27T18:21:00.721Z,3.78
2024-01-27T18:26:02.394Z,4.65
2024-01-27T18:31:04.364Z,4.03
2024-01-27T18:36:06.201Z,4.45
2024-01-27T18:41:07.879Z,3.47
2024-01-27T18:46:09.595Z,4.22
2024-01-27T18:51:11.241Z,4.20
2024-01-27T18:56:14.347Z,4.37
2024-01-27T19:01:15.995Z,3.67
2024-01-27T19:06:19.604Z,4.40
2024-01-27T19:11:22.162Z,4.38
2024-01-27T19:16:23.983Z,3.80
2024-01-27T19:21:25.641Z,4.05
2024-01-27T19:26:27.278Z,5.43
2024-01-27T19:31:28.999Z,7.47
2024-01-27T19:36:30.681Z,10.65
2024-01-27T19:41:32.488Z,9.60
2024-01-27T19:46:34.145Z,9.23
2024-01-27T19:51:41.762Z,7.68
2024-01-27T19:56:43.404Z,8.13
2024-01-27T20:01:45.126Z,7.82
2024-01-27T20:06:48.678Z,7.55
2024-01-27T20:11:50.658Z,6.40
2024-01-27T20:16:52.283Z,4.55
2024-01-27T20:21:53.918Z,4.32
2024-01-27T20:26:55.520Z,4.90
2024-01-27T20:31:57.210Z,5.40
2024-01-27T20:36:58.877Z,5.93
2024-01-27T20:42:00.687Z,7.32
2024-01-27T20:47:02.361Z,7.30
2024-01-27T20:52:04.868Z,8.20
2024-01-27T20:57:06.562Z,8.30
2024-01-27T21:02:08.236Z,7.70
2024-01-27T21:07:10.450Z,9.43
2024-01-27T21:12:12.138Z,6.97
2024-01-27T21:17:13.920Z,7.43
2024-01-27T21:22:15.611Z,7.20
2024-01-27T21:27:17.393Z,7.70
2024-01-27T21:32:20.990Z,7.30
2024-01-27T21:37:24.265Z,7.00
2024-01-27T21:42:25.894Z,5.57
2024-01-27T21:47:27.544Z,5.57
2024-01-27T21:52:29.344Z,5.77
2024-01-27T21:57:31.091Z,6.03
2024-01-27T22:02:38.988Z,6.67
2024-01-27T22:07:42.503Z,6.70
2024-01-27T22:12:45.952Z,5.20
2024-01-27T22:17:47.632Z,10.70
2024-01-27T22:22:49.269Z,8.87
2024-01-27T22:27:50.961Z,6.53
2024-01-27T22:32:53.387Z,5.83
2024-01-27T22:37:56.583Z,6.90
2024-01-27T22:42:58.570Z,5.97
2024-01-27T22:48:03.419Z,6.20
2024-01-27T22:53:05.198Z,6.07
2024-01-27T22:58:06.857Z,6.57
2024-01-27T23:03:10.189Z,6.87
2024-01-27T23:08:13.494Z,6.53
2024-01-27T23:13:22.230Z,7.00
2024-01-27T23:18:24.012Z,7.00
2024-01-27T23:23:26.239Z,6.53
2024-01-27T23:28:27.908Z,6.30
2024-01-27T23:33:29.735Z,6.40
2024-01-27T23:38:31.401Z,7.53
2024-01-27T23:43:33.131Z,6.20
2024-01-27T23:48:35.203Z,6.77
2024-01-27T23:53:39.101Z,6.50
2024-01-27T23:58:40.740Z,5.43
